createdAt,value
2018-11-23T00:00:00.419Z,101617.13
2018-11-23T00:01:06.588Z,101614.57
2018-11-23T00:02:12.064Z,101615.47
2018-11-23T00:03:17.563Z,101612.55
2018-11-23T00:04:23.097Z,101615.75
2018-11-23T00:05:28.516Z,101617.39
2018-11-23T00:06:34.074Z,101617.45
2018-11-23T00:07:39.924Z,101617.02
2018-11-23T00:08:45.594Z,101616.58
2018-11-23T00:09:51.123Z,101622.02
2018-11-23T00:10:56.582Z,101621.25
2018-11-23T00:12:02.085Z,101616.58
2018-11-23T00:13:07.575Z,101619.48
2018-11-23T00:14:13.094Z,101623.64
2018-11-23T00:15:19.879Z,101623.20
2018-11-23T00:16:25.357Z,101624.94
2018-11-23T00:17:30.885Z,101622.02
2018-11-23T00:18:36.330Z,101621.95
2018-11-23T00:19:41.965Z,101623.64
2018-11-23T00:20:47.362Z,101624.58
2018-11-23T00:21:52.816Z,101625.88
2018-11-23T00:22:58.351Z,101627.64
2018-11-23T00:24:03.805Z,101631.81
2018-11-23T00:25:12.214Z,101625.45
2018-11-23T00:26:17.698Z,101628.06
2018-11-23T00:27:23.146Z,101632.80
2018-11-23T00:28:28.582Z,101634.94
2018-11-23T00:29:33.987Z,101634.55
2018-11-23T00:30:39.556Z,101635.41
2018-11-23T00:31:45.141Z,101634.98
2018-11-23T00:32:51.230Z,101639.70
2018-11-23T00:33:56.695Z,101641.84
2018-11-23T00:35:02.114Z,101640.55
2018-11-23T00:36:07.842Z,101644.41
2018-11-23T00:37:13.364Z,101639.78
2018-11-23T00:38:18.805Z,101651.25
2018-11-23T00:39:24.251Z,101647.47
2018-11-23T00:40:30.917Z,101651.30
2018-11-23T00:41:36.430Z,101650.42
2018-11-23T00:42:42.493Z,101650.48
2018-11-23T00:43:47.914Z,101645.78
2018-11-23T00:44:53.394Z,101652.98
2018-11-23T00:45:58.925Z,101651.75
2018-11-23T00:47:04.387Z,101651.75
2018-11-23T00:48:09.856Z,101647.98
2018-11-23T00:49:15.335Z,101654.70
2018-11-23T00:50:21.894Z,101650.90
2018-11-23T00:51:27.470Z,101653.04
2018-11-23T00:52:32.869Z,101649.69
2018-11-23T00:53:38.310Z,101653.14
2018-11-23T00:54:43.765Z,101654.41
2018-11-23T00:55:49.226Z,101654.33
2018-11-23T00:56:54.721Z,101656.08
2018-11-23T00:58:00.139Z,101652.20
2018-11-23T00:59:05.746Z,101657.66
2018-11-23T01:00:17.653Z,101655.08
2018-11-23T01:01:23.089Z,101649.05
2018-11-23T01:02:28.675Z,101652.38
2018-11-23T01:03:34.199Z,101650.72
2018-11-23T01:04:39.593Z,101647.73
2018-11-23T01:05:45.002Z,101642.71
2018-11-23T01:06:50.522Z,101649.05
2018-11-23T01:07:56.110Z,101649.08
2018-11-23T01:09:01.582Z,101643.95
2018-11-23T01:10:09.919Z,101640.48
2018-11-23T01:11:15.411Z,101641.41
2018-11-23T01:12:20.839Z,101641.73
2018-11-23T01:13:26.344Z,101644.69
2018-11-23T01:14:31.881Z,101645.53
2018-11-23T01:15:37.278Z,101641.28
2018-11-23T01:16:42.678Z,101645.08
2018-11-23T01:17:48.218Z,101647.28
2018-11-23T01:18:53.790Z,101644.34
2018-11-23T01:19:59.322Z,101647.73
2018-11-23T01:21:04.860Z,101647.70
2018-11-23T01:22:10.338Z,101649.39
2018-11-23T01:23:15.723Z,101645.14
2018-11-23T01:24:21.190Z,101645.08
2018-11-23T01:25:27.727Z,101644.58
2018-11-23T01:26:33.187Z,101647.98
2018-11-23T01:27:39.166Z,101646.77
2018-11-23T01:28:44.618Z,101651.84
2018-11-23T01:29:50.086Z,101645.51
2018-11-23T01:30:55.670Z,101647.56
2018-11-23T01:32:01.119Z,101644.97
2018-11-23T01:33:06.610Z,101642.38
2018-11-23T01:34:12.042Z,101641.95
2018-11-23T01:35:17.556Z,101648.21
2018-11-23T01:36:23.014Z,101648.23
2018-11-23T01:37:28.478Z,101641.51
2018-11-23T01:38:33.942Z,101643.19
2018-11-23T01:39:39.370Z,101643.14
2018-11-23T01:40:44.848Z,101641.93
2018-11-23T01:41:50.327Z,101639.81
2018-11-23T01:42:56.315Z,101639.78
2018-11-23T01:44:01.895Z,101633.03
2018-11-23T01:45:09.049Z,101635.05
2018-11-23T01:46:14.546Z,101636.77
2018-11-23T01:47:21.876Z,101628.72
2018-11-23T01:48:27.337Z,101631.73
2018-11-23T01:49:32.782Z,101632.12
2018-11-23T01:50:38.267Z,101632.04
2018-11-23T01:51:43.669Z,101628.33
2018-11-23T01:52:49.989Z,101634.23
2018-11-23T01:53:55.435Z,101632.97
2018-11-23T01:55:00.930Z,101636.32
2018-11-23T01:56:06.456Z,101632.04
2018-11-23T01:57:11.886Z,101631.25
2018-11-23T01:58:17.296Z,101632.16
2018-11-23T01:59:22.759Z,101628.80
2018-11-23T02:00:29.218Z,101627.59
2018-11-23T02:01:34.680Z,101631.78
2018-11-23T02:02:40.149Z,101630.66
2018-11-23T02:03:45.609Z,101633.14
2018-11-23T02:04:51.132Z,101628.41
2018-11-23T02:05:56.620Z,101631.88
2018-11-23T02:07:02.103Z,101632.30
2018-11-23T02:08:08.346Z,101630.60
2018-11-23T02:09:13.830Z,101629.39
2018-11-23T02:10:19.818Z,101631.42
2018-11-23T02:11:25.239Z,101631.42
2018-11-23T02:12:30.655Z,101636.94
2018-11-23T02:13:36.132Z,101631.50
2018-11-23T02:14:41.940Z,101631.95
2018-11-23T02:15:47.416Z,101631.95
2018-11-23T02:16:52.847Z,101634.14
2018-11-23T02:17:58.230Z,101630.34
2018-11-23T02:19:03.648Z,101631.19
2018-11-23T02:20:14.754Z,101624.71
2018-11-23T02:21:20.249Z,101623.00
2018-11-23T02:22:26.574Z,101625.08
2018-11-23T02:23:38.582Z,101621.27
2018-11-23T02:24:44.035Z,101628.48
2018-11-23T02:25:49.550Z,101616.58
2018-11-23T02:26:55.042Z,101619.53
2018-11-23T02:28:00.680Z,101617.84
2018-11-23T02:29:06.371Z,101618.21
2018-11-23T02:30:16.863Z,101614.35
2018-11-23T02:31:27.482Z,101619.00
2018-11-23T02:32:32.928Z,101621.95
2018-11-23T02:33:40.778Z,101615.17
2018-11-23T02:34:46.210Z,101613.39
2018-11-23T02:35:51.774Z,101612.21
2018-11-23T02:36:57.208Z,101610.02
2018-11-23T02:38:02.627Z,101615.02
2018-11-23T02:39:09.470Z,101612.83
2018-11-23T02:40:16.239Z,101610.66
2018-11-23T02:41:21.720Z,101611.53
2018-11-23T02:42:27.223Z,101613.19
2018-11-23T02:43:32.671Z,101616.09
2018-11-23T02:44:38.123Z,101616.09
2018-11-23T02:45:43.632Z,101611.02
2018-11-23T02:46:49.100Z,101611.38
2018-11-23T02:47:54.611Z,101610.56
2018-11-23T02:49:00.056Z,101610.51
2018-11-23T02:50:06.159Z,101610.13
2018-11-23T02:51:11.615Z,101612.56
2018-11-23T02:52:17.056Z,101610.45
2018-11-23T02:53:22.514Z,101607.52
2018-11-23T02:54:27.944Z,101604.90
2018-11-23T02:55:33.392Z,101610.72
2018-11-23T02:56:45.122Z,101607.77
2018-11-23T02:57:50.603Z,101604.05
2018-11-23T02:58:56.104Z,101612.11
2018-11-23T03:00:01.557Z,101609.94
2018-11-23T03:01:06.979Z,101609.60
2018-11-23T03:02:12.408Z,101606.65
2018-11-23T03:03:17.850Z,101607.89
2018-11-23T03:04:23.326Z,101603.63
2018-11-23T03:05:28.829Z,101607.86
2018-11-23T03:06:34.286Z,101607.41
2018-11-23T03:07:39.858Z,101606.98
2018-11-23T03:08:45.395Z,101604.14
2018-11-23T03:09:50.858Z,101605.47
2018-11-23T03:10:56.335Z,101600.80
2018-11-23T03:12:01.832Z,101605.50
2018-11-23T03:13:07.242Z,101608.48
2018-11-23T03:14:12.704Z,101607.22
2018-11-23T03:15:19.902Z,101610.66
2018-11-23T03:16:25.341Z,101603.56
2018-11-23T03:17:30.797Z,101606.58
2018-11-23T03:18:36.275Z,101597.28
2018-11-23T03:19:41.753Z,101604.05
2018-11-23T03:20:47.190Z,101603.19
2018-11-23T03:21:52.746Z,101605.78
2018-11-23T03:22:58.190Z,101601.17
2018-11-23T03:24:03.642Z,101604.49
2018-11-23T03:25:10.488Z,101603.25
2018-11-23T03:26:15.900Z,101602.47
2018-11-23T03:27:21.378Z,101600.75
2018-11-23T03:28:26.850Z,101597.39
2018-11-23T03:29:32.326Z,101597.39
2018-11-23T03:30:37.786Z,101600.35
2018-11-23T03:31:43.247Z,101593.67
2018-11-23T03:32:49.458Z,101602.52
2018-11-23T03:33:55.521Z,101592.86
2018-11-23T03:35:01.049Z,101597.05
2018-11-23T03:36:06.707Z,101596.13
2018-11-23T03:37:12.181Z,101598.66
2018-11-23T03:38:17.643Z,101593.56
2018-11-23T03:39:23.077Z,101594.49
2018-11-23T03:40:28.655Z,101587.23
2018-11-23T03:41:34.141Z,101589.34
2018-11-23T03:42:39.543Z,101588.44
2018-11-23T03:43:45.122Z,101593.45
2018-11-23T03:44:50.558Z,101593.06
2018-11-23T03:45:56.030Z,101590.89
2018-11-23T03:47:01.512Z,101591.70
2018-11-23T03:48:07.150Z,101592.16
2018-11-23T03:49:12.634Z,101588.38
2018-11-23T03:50:18.527Z,101590.89
2018-11-23T03:51:24.033Z,101589.98
2018-11-23T03:52:29.418Z,101586.19
2018-11-23T03:53:34.881Z,101584.86
2018-11-23T03:54:40.352Z,101586.58
2018-11-23T03:55:45.795Z,101587.03
2018-11-23T03:56:51.233Z,101587.84
2018-11-23T03:57:56.718Z,101585.28
2018-11-23T03:59:02.160Z,101587.42
2018-11-23T04:00:20.267Z,101587.00
2018-11-23T04:01:25.757Z,101586.58
2018-11-23T04:02:31.291Z,101582.72
2018-11-23T04:03:36.767Z,101585.28
2018-11-23T04:04:42.262Z,101580.70
2018-11-23T04:05:47.680Z,101586.58
2018-11-23T04:06:53.124Z,101582.78
2018-11-23T04:07:58.939Z,101577.23
2018-11-23T04:09:05.498Z,101582.70
2018-11-23T04:10:12.653Z,101582.30
2018-11-23T04:11:18.059Z,101581.76
2018-11-23T04:12:23.481Z,101577.98
2018-11-23T04:13:28.928Z,101581.37
2018-11-23T04:14:34.372Z,101585.53
2018-11-23T04:15:39.855Z,101579.63
2018-11-23T04:16:45.259Z,101582.13
2018-11-23T04:17:50.706Z,101579.11
2018-11-23T04:18:56.137Z,101579.50
2018-11-23T04:20:01.609Z,101585.84
2018-11-23T04:21:07.326Z,101581.55
2018-11-23T04:22:12.783Z,101581.10
2018-11-23T04:23:18.242Z,101580.28
2018-11-23T04:24:23.704Z,101580.25
2018-11-23T04:25:29.154Z,101582.34
2018-11-23T04:26:34.559Z,101576.34
2018-11-23T04:27:40.250Z,101569.64
2018-11-23T04:28:45.843Z,101574.67
2018-11-23T04:29:51.269Z,101574.20
2018-11-23T04:30:57.019Z,101576.28
2018-11-23T04:32:02.450Z,101575.46
2018-11-23T04:33:07.934Z,101578.78
2018-11-23T04:34:13.369Z,101572.86
2018-11-23T04:35:19.995Z,101572.05
2018-11-23T04:36:25.446Z,101570.37
2018-11-23T04:37:30.895Z,101575.77
2018-11-23T04:38:36.342Z,101574.44
2018-11-23T04:39:41.825Z,101576.97
2018-11-23T04:40:47.378Z,101575.63
2018-11-23T04:41:52.890Z,101572.32
2018-11-23T04:42:58.495Z,101567.77
2018-11-23T04:44:03.942Z,101577.03
2018-11-23T04:45:09.886Z,101582.03
2018-11-23T04:46:15.426Z,101572.30
2018-11-23T04:47:20.820Z,101577.74
2018-11-23T04:48:26.251Z,101573.49
2018-11-23T04:49:31.713Z,101580.28
2018-11-23T04:50:37.159Z,101585.34
2018-11-23T04:51:42.714Z,101581.58
2018-11-23T04:52:48.102Z,101582.91
2018-11-23T04:53:53.704Z,101579.56
2018-11-23T04:54:59.199Z,101581.67
2018-11-23T04:56:04.635Z,101585.92
2018-11-23T04:57:10.131Z,101584.27
2018-11-23T04:58:15.570Z,101583.42
2018-11-23T04:59:21.118Z,101580.47
2018-11-23T05:00:26.684Z,101580.89
2018-11-23T05:01:32.129Z,101582.19
2018-11-23T05:02:37.580Z,101583.52
2018-11-23T05:03:43.013Z,101586.05
2018-11-23T05:04:48.428Z,101583.52
2018-11-23T05:05:53.930Z,101581.38
2018-11-23T05:06:59.346Z,101585.17
2018-11-23T05:08:04.794Z,101577.99
2018-11-23T05:09:11.142Z,101584.27
2018-11-23T05:10:17.504Z,101580.11
2018-11-23T05:11:22.933Z,101577.16
2018-11-23T05:12:28.403Z,101574.62
2018-11-23T05:13:33.850Z,101576.34
2018-11-23T05:14:39.314Z,101576.34
2018-11-23T05:15:44.726Z,101572.02
2018-11-23T05:16:50.210Z,101575.88
2018-11-23T05:17:55.629Z,101575.52
2018-11-23T05:19:01.167Z,101574.20
2018-11-23T05:20:07.806Z,101573.80
2018-11-23T05:21:13.263Z,101571.24
2018-11-23T05:22:18.680Z,101571.60
2018-11-23T05:23:24.138Z,101572.05
2018-11-23T05:24:29.597Z,101569.85
2018-11-23T05:25:35.093Z,101565.17
2018-11-23T05:26:40.498Z,101569.34
2018-11-23T05:27:46.066Z,101571.35
2018-11-23T05:28:51.494Z,101569.20
2018-11-23T05:29:57.175Z,101569.63
2018-11-23T05:31:02.641Z,101569.24
2018-11-23T05:32:08.143Z,101572.16
2018-11-23T05:33:13.638Z,101567.91
2018-11-23T05:34:19.074Z,101571.19
2018-11-23T05:35:24.667Z,101567.39
2018-11-23T05:36:30.137Z,101566.88
2018-11-23T05:37:35.569Z,101560.64
2018-11-23T05:38:40.980Z,101562.39
2018-11-23T05:39:46.471Z,101559.31
2018-11-23T05:40:51.924Z,101554.58
2018-11-23T05:41:57.373Z,101558.44
2018-11-23T05:43:04.415Z,101559.19
2018-11-23T05:44:08.408Z,101551.95
2018-11-23T05:45:15.968Z,101556.23
2018-11-23T05:46:21.413Z,101560.80
2018-11-23T05:47:27.054Z,101563.30
2018-11-23T05:48:32.546Z,101558.23
2018-11-23T05:49:37.967Z,101559.93
2018-11-23T05:50:43.414Z,101561.58
2018-11-23T05:51:48.853Z,101564.57
2018-11-23T05:52:54.514Z,101567.88
2018-11-23T05:54:00.039Z,101564.08
2018-11-23T05:55:05.804Z,101561.48
2018-11-23T05:56:11.230Z,101564.44
2018-11-23T05:57:16.637Z,101560.67
2018-11-23T05:58:22.065Z,101560.61
2018-11-23T05:59:27.618Z,101562.75
2018-11-23T06:00:33.672Z,101558.88
2018-11-23T06:01:39.096Z,101562.26
2018-11-23T06:02:44.552Z,101556.61
2018-11-23T06:03:49.978Z,101551.93
2018-11-23T06:04:55.474Z,101553.33
2018-11-23T06:06:00.879Z,101557.66
2018-11-23T06:07:06.606Z,101555.37
2018-11-23T06:08:12.066Z,101548.98
2018-11-23T06:09:17.507Z,101553.62
2018-11-23T06:10:23.446Z,101550.59
2018-11-23T06:11:28.999Z,101552.25
2018-11-23T06:12:34.410Z,101549.16
2018-11-23T06:13:39.859Z,101549.05
2018-11-23T06:14:45.269Z,101555.69
2018-11-23T06:15:50.742Z,101557.34
2018-11-23T06:16:56.278Z,101553.58
2018-11-23T06:18:01.882Z,101557.91
2018-11-23T06:19:07.418Z,101553.69
2018-11-23T06:20:15.375Z,101551.05
2018-11-23T06:21:20.904Z,101550.91
2018-11-23T06:22:26.295Z,101548.73
2018-11-23T06:23:31.783Z,101548.84
2018-11-23T06:24:37.209Z,101549.39
2018-11-23T06:25:46.997Z,101549.35
2018-11-23T06:26:52.541Z,101548.39
2018-11-23T06:27:58.024Z,101548.39
2018-11-23T06:29:03.494Z,101547.02
2018-11-23T06:30:11.583Z,101542.69
2018-11-23T06:31:17.029Z,101545.98
2018-11-23T06:32:39.462Z,101548.48
2018-11-23T06:33:46.149Z,101541.27
2018-11-23T06:34:51.542Z,101551.34
2018-11-23T06:35:57.027Z,101550.46
2018-11-23T06:37:02.486Z,101543.95
2018-11-23T06:38:07.941Z,101540.84
2018-11-23T06:39:13.419Z,101542.61
2018-11-23T06:40:19.499Z,101551.77
2018-11-23T06:41:25.074Z,101550.46
2018-11-23T06:42:30.506Z,101549.28
2018-11-23T06:43:35.984Z,101547.98
2018-11-23T06:44:41.426Z,101550.50
2018-11-23T06:45:46.915Z,101540.51
2018-11-23T06:46:52.452Z,101543.84
2018-11-23T06:47:57.895Z,101540.51
2018-11-23T06:49:03.380Z,101543.00
2018-11-23T06:50:12.943Z,101544.30
2018-11-23T06:51:18.373Z,101541.77
2018-11-23T06:52:23.822Z,101542.16
2018-11-23T06:53:29.221Z,101542.12
2018-11-23T06:54:34.646Z,101537.83
2018-11-23T06:55:40.102Z,101537.02
2018-11-23T06:56:45.830Z,101543.64
2018-11-23T06:57:51.217Z,101540.61
2018-11-23T06:58:56.653Z,101541.34
2018-11-23T07:00:02.065Z,101537.97
2018-11-23T07:01:07.622Z,101538.35
2018-11-23T07:02:13.113Z,101539.73
2018-11-23T07:03:18.663Z,101545.55
2018-11-23T07:04:24.090Z,101547.27
2018-11-23T07:05:29.574Z,101546.93
2018-11-23T07:06:34.990Z,101542.46
2018-11-23T07:07:40.416Z,101545.87
2018-11-23T07:08:52.271Z,101543.64
2018-11-23T07:09:51.354Z,101543.30
2018-11-23T07:11:01.190Z,101544.02
2018-11-23T07:12:06.690Z,101545.67
2018-11-23T07:13:12.119Z,101541.04
2018-11-23T07:14:17.601Z,101548.58
2018-11-23T07:15:23.067Z,101540.66
2018-11-23T07:16:28.599Z,101547.70
2018-11-23T07:17:34.022Z,101550.69
2018-11-23T07:18:39.459Z,101551.91
2018-11-23T07:19:44.927Z,101547.66
2018-11-23T07:20:50.343Z,101551.83
2018-11-23T07:21:55.863Z,101553.52
2018-11-23T07:23:01.329Z,101552.33
2018-11-23T07:24:07.255Z,101559.07
2018-11-23T07:25:13.827Z,101562.98
2018-11-23T07:26:19.274Z,101556.23
2018-11-23T07:27:24.791Z,101562.59
2018-11-23T07:28:30.293Z,101560.11
2018-11-23T07:29:35.711Z,101558.42
2018-11-23T07:30:41.232Z,101565.21
2018-11-23T07:31:46.662Z,101563.95
2018-11-23T07:32:52.307Z,101565.78
2018-11-23T07:33:57.774Z,101557.28
2018-11-23T07:35:03.366Z,101562.80
2018-11-23T07:36:11.274Z,101560.61
2018-11-23T07:37:17.026Z,101561.07
2018-11-23T07:38:22.658Z,101559.34
2018-11-23T07:39:45.075Z,101555.55
2018-11-23T07:41:07.330Z,101559.34
2018-11-23T07:42:28.610Z,101553.88
2018-11-23T07:43:34.070Z,101556.36
2018-11-23T07:44:39.567Z,101558.88
2018-11-23T07:45:45.003Z,101559.73
2018-11-23T07:46:50.458Z,101559.31
2018-11-23T07:47:55.887Z,101558.93
2018-11-23T07:49:01.451Z,101560.15
2018-11-23T07:50:08.830Z,101558.13
2018-11-23T07:51:14.270Z,101561.03
2018-11-23T07:52:19.690Z,101558.93
2018-11-23T07:53:25.129Z,101561.07
2018-11-23T07:54:30.618Z,101556.94
2018-11-23T07:55:36.085Z,101560.38
2018-11-23T07:56:41.526Z,101557.40
2018-11-23T07:57:47.006Z,101564.17
2018-11-23T07:58:52.455Z,101555.37
2018-11-23T07:59:57.997Z,101557.86
2018-11-23T08:01:03.471Z,101553.68
2018-11-23T08:02:10.934Z,101559.08
2018-11-23T08:03:16.419Z,101552.00
2018-11-23T08:04:21.915Z,101563.75
2018-11-23T08:05:27.580Z,101559.05
2018-11-23T08:06:33.083Z,101566.75
2018-11-23T08:07:38.547Z,101559.62
2018-11-23T08:08:44.031Z,101562.56
2018-11-23T08:09:49.543Z,101562.49
2018-11-23T08:10:54.043Z,101559.27
2018-11-23T08:11:59.502Z,101561.38
2018-11-23T08:13:04.994Z,101560.58
2018-11-23T08:14:10.488Z,101555.02
2018-11-23T08:15:19.130Z,101562.64
2018-11-23T08:16:24.596Z,101558.01
2018-11-23T08:17:30.064Z,101554.68
2018-11-23T08:18:35.627Z,101558.20
2018-11-23T08:19:47.237Z,101559.96
2018-11-23T08:20:46.535Z,101549.42
2018-11-23T08:21:52.022Z,101550.69
2018-11-23T08:22:57.505Z,101549.84
2018-11-23T08:24:03.015Z,101545.17
2018-11-23T08:25:10.166Z,101552.45
2018-11-23T08:26:15.563Z,101552.52
2018-11-23T08:27:20.987Z,101555.93
2018-11-23T08:28:26.378Z,101559.41
2018-11-23T08:29:31.850Z,101555.62
2018-11-23T08:30:37.548Z,101562.86
2018-11-23T08:31:42.950Z,101561.98
2018-11-23T08:32:48.487Z,101566.76
2018-11-23T08:33:53.951Z,101565.56
2018-11-23T08:34:59.446Z,101560.13
2018-11-23T08:36:04.992Z,101568.94
2018-11-23T08:37:10.430Z,101570.31
2018-11-23T08:38:15.863Z,101560.37
2018-11-23T08:39:21.294Z,101561.31
2018-11-23T08:40:27.568Z,101560.53
2018-11-23T08:41:33.076Z,101559.37
2018-11-23T08:42:38.553Z,101562.39
2018-11-23T08:43:44.000Z,101561.09
2018-11-23T08:44:49.415Z,101561.84
2018-11-23T08:45:54.846Z,101562.33
2018-11-23T08:47:00.395Z,101567.13
2018-11-23T08:48:05.857Z,101565.48
2018-11-23T08:49:11.349Z,101558.70
2018-11-23T08:50:22.015Z,101568.08
2018-11-23T08:51:27.477Z,101564.77
2018-11-23T08:52:33.803Z,101558.76
2018-11-23T08:53:39.237Z,101559.41
2018-11-23T08:54:44.667Z,101561.88
2018-11-23T08:55:50.100Z,101550.55
2018-11-23T08:56:55.567Z,101554.44
2018-11-23T08:58:01.002Z,101554.86
2018-11-23T08:59:06.507Z,101554.12
2018-11-23T09:00:25.174Z,101553.34
2018-11-23T09:01:30.676Z,101558.31
2018-11-23T09:02:36.120Z,101553.34
2018-11-23T09:03:41.610Z,101557.49
2018-11-23T09:04:47.180Z,101551.72
2018-11-23T09:05:52.632Z,101553.59
2018-11-23T09:06:58.038Z,101553.63
2018-11-23T09:08:03.531Z,101556.20
2018-11-23T09:09:11.254Z,101552.50
2018-11-23T09:10:19.168Z,101557.27
2018-11-23T09:11:24.598Z,101558.59
2018-11-23T09:12:30.050Z,101552.72
2018-11-23T09:13:35.454Z,101551.03
2018-11-23T09:14:40.901Z,101552.27
2018-11-23T09:15:46.382Z,101557.33
2018-11-23T09:16:51.966Z,101548.53
2018-11-23T09:17:57.458Z,101554.44
2018-11-23T09:19:02.922Z,101549.83
2018-11-23T09:20:10.342Z,101552.48
2018-11-23T09:21:15.805Z,101544.95
2018-11-23T09:22:23.526Z,101550.46
2018-11-23T09:23:26.746Z,101550.98
2018-11-23T09:24:32.220Z,101552.66
2018-11-23T09:25:37.675Z,101553.96
2018-11-23T09:26:43.110Z,101559.57
2018-11-23T09:27:48.673Z,101552.02
2018-11-23T09:28:54.173Z,101556.19
2018-11-23T09:29:59.621Z,101556.58
2018-11-23T09:31:05.147Z,101557.97
2018-11-23T09:32:10.735Z,101556.67
2018-11-23T09:33:16.294Z,101554.20
2018-11-23T09:34:21.738Z,101550.31
2018-11-23T09:35:27.903Z,101548.73
2018-11-23T09:36:33.327Z,101553.83
2018-11-23T09:37:39.759Z,101551.36
2018-11-23T09:38:45.227Z,101554.91
2018-11-23T09:39:50.690Z,101556.98
2018-11-23T09:40:56.143Z,101554.05
2018-11-23T09:42:01.638Z,101549.07
2018-11-23T09:43:07.339Z,101554.22
2018-11-23T09:44:12.782Z,101550.05
2018-11-23T09:45:19.628Z,101551.00
2018-11-23T09:46:25.105Z,101538.47
2018-11-23T09:47:30.600Z,101543.99
2018-11-23T09:48:36.171Z,101543.52
2018-11-23T09:49:41.566Z,101544.84
2018-11-23T09:50:47.097Z,101542.80
2018-11-23T09:51:52.550Z,101545.41
2018-11-23T09:52:59.339Z,101544.26
2018-11-23T09:54:04.818Z,101547.73
2018-11-23T09:55:10.385Z,101548.16
2018-11-23T09:56:15.826Z,101545.70
2018-11-23T09:57:21.288Z,101542.37
2018-11-23T09:58:26.764Z,101538.17
2018-11-23T09:59:32.222Z,101538.64
2018-11-23T10:00:38.327Z,101541.22
2018-11-23T10:01:43.799Z,101538.28
2018-11-23T10:02:50.146Z,101539.61
2018-11-23T10:03:55.550Z,101538.75
2018-11-23T10:05:00.958Z,101533.75
2018-11-23T10:06:06.512Z,101532.05
2018-11-23T10:07:12.009Z,101535.05
2018-11-23T10:08:17.396Z,101526.56
2018-11-23T10:09:22.818Z,101531.22
2018-11-23T10:10:29.066Z,101528.27
2018-11-23T10:11:34.466Z,101520.23
2018-11-23T10:12:40.019Z,101522.73
2018-11-23T10:13:45.470Z,101522.76
2018-11-23T10:14:50.888Z,101526.17
2018-11-23T10:15:56.367Z,101527.98
2018-11-23T10:17:01.842Z,101528.46
2018-11-23T10:18:07.319Z,101532.27
2018-11-23T10:19:24.027Z,101526.79
2018-11-23T10:20:30.840Z,101525.22
2018-11-23T10:21:36.270Z,101518.95
2018-11-23T10:22:41.962Z,101520.15
2018-11-23T10:23:47.363Z,101518.89
2018-11-23T10:24:52.902Z,101518.03
2018-11-23T10:25:58.341Z,101522.81
2018-11-23T10:27:03.813Z,101527.46
2018-11-23T10:28:09.259Z,101520.72
2018-11-23T10:29:14.699Z,101526.29
2018-11-23T10:30:24.598Z,101525.90
2018-11-23T10:31:30.103Z,101528.05
2018-11-23T10:32:35.529Z,101523.84
2018-11-23T10:33:41.183Z,101527.73
2018-11-23T10:34:46.639Z,101526.95
2018-11-23T10:35:52.142Z,101529.08
2018-11-23T10:36:57.667Z,101530.41
2018-11-23T10:38:04.596Z,101528.39
2018-11-23T10:39:10.013Z,101524.99
2018-11-23T10:40:17.540Z,101523.75
2018-11-23T10:41:22.996Z,101527.58
2018-11-23T10:42:28.420Z,101526.72
2018-11-23T10:43:33.950Z,101522.50
2018-11-23T10:44:39.427Z,101518.62
2018-11-23T10:45:44.856Z,101522.45
2018-11-23T10:46:50.330Z,101518.66
2018-11-23T10:47:56.614Z,101516.55
2018-11-23T10:49:02.077Z,101516.58
2018-11-23T10:50:11.927Z,101517.87
2018-11-23T10:51:17.397Z,101519.60
2018-11-23T10:52:22.800Z,101519.19
2018-11-23T10:53:28.296Z,101520.06
2018-11-23T10:54:33.853Z,101514.55
2018-11-23T10:55:39.480Z,101514.97
2018-11-23T10:56:44.921Z,101510.76
2018-11-23T10:57:50.570Z,101504.87
2018-11-23T10:58:56.048Z,101509.50
2018-11-23T11:00:01.456Z,101509.96
2018-11-23T11:01:12.251Z,101504.45
2018-11-23T11:02:22.967Z,101500.65
2018-11-23T11:03:35.397Z,101503.23
2018-11-23T11:04:45.958Z,101504.93
2018-11-23T11:05:57.513Z,101496.44
2018-11-23T11:07:07.886Z,101493.85
2018-11-23T11:08:13.333Z,101488.79
2018-11-23T11:09:18.783Z,101489.62
2018-11-23T11:10:24.223Z,101493.89
2018-11-23T11:11:29.743Z,101488.45
2018-11-23T11:12:35.323Z,101483.78
2018-11-23T11:13:40.791Z,101485.09
2018-11-23T11:14:46.280Z,101486.38
2018-11-23T11:15:51.790Z,101480.45
2018-11-23T11:16:57.255Z,101485.14
2018-11-23T11:18:02.708Z,101478.36
2018-11-23T11:19:08.484Z,101476.24
2018-11-23T11:20:13.926Z,101483.88
2018-11-23T11:21:19.391Z,101483.48
2018-11-23T11:22:24.878Z,101486.03
2018-11-23T11:23:30.335Z,101487.74
2018-11-23T11:24:35.817Z,101492.88
2018-11-23T11:25:41.255Z,101491.64
2018-11-23T11:26:46.708Z,101489.50
2018-11-23T11:27:52.206Z,101489.95
2018-11-23T11:28:57.731Z,101490.33
2018-11-23T11:30:03.252Z,101492.02
2018-11-23T11:31:08.725Z,101483.95
2018-11-23T11:32:14.119Z,101484.84
2018-11-23T11:33:19.813Z,101479.31
2018-11-23T11:34:25.482Z,101472.13
2018-11-23T11:35:30.931Z,101477.62
2018-11-23T11:36:36.386Z,101472.52
2018-11-23T11:37:42.343Z,101470.39
2018-11-23T11:38:47.918Z,101468.28
2018-11-23T11:39:53.384Z,101470.83
2018-11-23T11:40:58.835Z,101473.77
2018-11-23T11:42:04.314Z,101467.44
2018-11-23T11:43:09.756Z,101465.33
2018-11-23T11:44:15.226Z,101467.87
2018-11-23T11:45:20.732Z,101468.75
2018-11-23T11:46:26.151Z,101465.36
2018-11-23T11:47:31.562Z,101468.73
2018-11-23T11:48:37.019Z,101460.24
2018-11-23T11:49:42.438Z,101458.14
2018-11-23T11:50:47.882Z,101459.41
2018-11-23T11:51:53.362Z,101457.28
2018-11-23T11:52:58.873Z,101457.29
2018-11-23T11:54:04.346Z,101456.87
2018-11-23T11:55:12.841Z,101463.23
2018-11-23T11:56:18.262Z,101459.42
2018-11-23T11:57:23.705Z,101461.14
2018-11-23T11:58:29.205Z,101463.27
2018-11-23T11:59:34.663Z,101467.09
2018-11-23T12:00:40.161Z,101470.05
2018-11-23T12:01:45.711Z,101464.95
2018-11-23T12:02:51.134Z,101456.05
2018-11-23T12:03:57.194Z,101455.62
2018-11-23T12:05:02.638Z,101447.53
2018-11-23T12:06:08.119Z,101444.57
2018-11-23T12:07:13.550Z,101449.25
2018-11-23T12:08:19.078Z,101444.56
2018-11-23T12:09:24.539Z,101446.68
2018-11-23T12:10:29.964Z,101437.33
2018-11-23T12:11:35.399Z,101437.77
2018-11-23T12:12:40.903Z,101433.10
2018-11-23T12:13:46.331Z,101433.95
2018-11-23T12:14:51.900Z,101430.55
2018-11-23T12:15:57.337Z,101427.57
2018-11-23T12:17:02.850Z,101426.72
2018-11-23T12:18:08.323Z,101426.30
2018-11-23T12:19:13.893Z,101423.73
2018-11-23T12:20:20.898Z,101423.33
2018-11-23T12:21:26.309Z,101425.86
2018-11-23T12:22:32.106Z,101421.64
2018-11-23T12:23:37.547Z,101423.75
2018-11-23T12:24:43.162Z,101425.45
2018-11-23T12:25:48.656Z,101416.55
2018-11-23T12:26:54.110Z,101414.01
2018-11-23T12:27:59.578Z,101415.71
2018-11-23T12:29:05.117Z,101409.75
2018-11-23T12:30:14.434Z,101412.28
2018-11-23T12:31:19.965Z,101412.70